sensor_id;sensor_type;location;lat;lon;timestamp;temperature;humidity
3756;DHT22;1893;52.526;13.360;2022-11-11T00:00:26;9.80;99.90
3756;DHT22;1893;52.526;13.360;2022-11-11T00:02:54;9.80;99.90
3756;DHT22;1893;52.526;13.360;2022-11-11T00:05:19;9.80;99.90
3756;DHT22;1893;52.526;13.360;2022-11-11T00:07:46;9.80;99.90
3756;DHT22;1893;52.526;13.360;2022-11-11T00:10:12;9.70;99.90
3756;DHT22;1893;52.526;13.360;2022-11-11T00:12:38;9.70;99.90
3756;DHT22;1893;52.526;13.360;2022-11-11T00:15:04;9.70;99.90
3756;DHT22;1893;52.526;13.360;2022-11-11T00:17:29;9.70;99.90
3756;DHT22;1893;52.526;13.360;2022-11-11T00:20:14;9.60;99.90
3756;DHT22;1893;52.526;13.360;2022-11-11T00:22:58;9.70;99.90
3756;DHT22;1893;52.526;13.360;2022-11-11T00:25:42;9.60;99.90
3756;DHT22;1893;52.526;13.360;2022-11-11T00:28:08;9.60;99.90
3756;DHT22;1893;52.526;13.360;2022-11-11T00:30:33;9.60;99.90
3756;DHT22;1893;52.526;13.360;2022-11-11T00:32:59;9.50;99.90
3756;DHT22;1893;52.526;13.360;2022-11-11T00:35:25;9.50;99.90
3756;DHT22;1893;52.526;13.360;2022-11-11T00:38:10;9.50;99.90
3756;DHT22;1893;52.526;13.360;2022-11-11T00:40:57;9.50;99.90
3756;DHT22;1893;52.526;13.360;2022-11-11T00:43:22;9.40;99.90
3756;DHT22;1893;52.526;13.360;2022-11-11T00:45:48;9.40;99.90
3756;DHT22;1893;52.526;13.360;2022-11-11T00:48:13;9.30;99.90
3756;DHT22;1893;52.526;13.360;2022-11-11T00:50:57;9.30;99.90
3756;DHT22;1893;52.526;13.360;2022-11-11T00:53:25;9.30;99.90
3756;DHT22;1893;52.526;13.360;2022-11-11T00:55:52;9.30;99.90
3756;DHT22;1893;52.526;13.360;2022-11-11T00:58:17;9.30;99.90
3756;DHT22;1893;52.526;13.360;2022-11-11T01:00:43;9.30;99.90
3756;DHT22;1893;52.526;13.360;2022-11-11T01:03:09;9.20;99.90
3756;DHT22;1893;52.526;13.360;2022-11-11T01:05:38;9.20;99.90
3756;DHT22;1893;52.526;13.360;2022-11-11T01:08:04;9.20;99.90
3756;DHT22;1893;52.526;13.360;2022-11-11T01:10:30;9.20;99.90
3756;DHT22;1893;52.526;13.360;2022-11-11T01:13:25;9.20;99.90
3756;DHT22;1893;52.526;13.360;2022-11-11T01:15:59;9.30;99.90
3756;DHT22;1893;52.526;13.360;2022-11-11T01:18:26;9.20;99.90
3756;DHT22;1893;52.526;13.360;2022-11-11T01:21:00;9.20;99.90
3756;DHT22;1893;52.526;13.360;2022-11-11T01:23:26;9.20;99.90
3756;DHT22;1893;52.526;13.360;2022-11-11T01:25:52;9.20;99.90
3756;DHT22;1893;52.526;13.360;2022-11-11T01:28:18;9.20;99.90
3756;DHT22;1893;52.526;13.360;2022-11-11T01:30:44;9.30;99.90
3756;DHT22;1893;52.526;13.360;2022-11-11T01:33:10;9.20;99.90
3756;DHT22;1893;52.526;13.360;2022-11-11T01:35:40;9.20;99.90
3756;DHT22;1893;52.526;13.360;2022-11-11T01:38:07;9.20;99.90
3756;DHT22;1893;52.526;13.360;2022-11-11T01:40:41;9.30;99.90
3756;DHT22;1893;52.526;13.360;2022-11-11T01:45:51;9.20;99.90
3756;DHT22;1893;52.526;13.360;2022-11-11T01:48:45;9.20;99.90
3756;DHT22;1893;52.526;13.360;2022-11-11T01:51:48;9.20;99.90
3756;DHT22;1893;52.526;13.360;2022-11-11T01:54:29;9.20;99.90
3756;DHT22;1893;52.526;13.360;2022-11-11T01:57:07;9.20;99.90
3756;DHT22;1893;52.526;13.360;2022-11-11T01:59:36;9.20;99.90
3756;DHT22;1893;52.526;13.360;2022-11-11T02:02:10;9.20;99.90
3756;DHT22;1893;52.526;13.360;2022-11-11T02:04:38;9.20;99.90
3756;DHT22;1893;52.526;13.360;2022-11-11T02:07:23;9.10;99.90
3756;DHT22;1893;52.526;13.360;2022-11-11T02:09:50;9.10;99.90
3756;DHT22;1893;52.526;13.360;2022-11-11T02:12:16;9.10;99.90
3756;DHT22;1893;52.526;13.360;2022-11-11T02:15:01;9.10;99.90
3756;DHT22;1893;52.526;13.360;2022-11-11T02:17:30;9.10;99.90
3756;DHT22;1893;52.526;13.360;2022-11-11T02:20:01;9.10;99.90
3756;DHT22;1893;52.526;13.360;2022-11-11T02:22:41;9.10;99.90
3756;DHT22;1893;52.526;13.360;2022-11-11T02:25:13;9.00;99.90
3756;DHT22;1893;52.526;13.360;2022-11-11T02:27:42;9.00;99.90
3756;DHT22;1893;52.526;13.360;2022-11-11T02:30:09;9.10;99.90
3756;DHT22;1893;52.526;13.360;2022-11-11T02:32:47;9.10;99.90
3756;DHT22;1893;52.526;13.360;2022-11-11T02:35:23;9.00;99.90
3756;DHT22;1893;52.526;13.360;2022-11-11T02:37:50;9.00;99.90
3756;DHT22;1893;52.526;13.360;2022-11-11T02:40:20;9.10;99.90
3756;DHT22;1893;52.526;13.360;2022-11-11T02:42:47;9.10;99.90
3756;DHT22;1893;52.526;13.360;2022-11-11T02:45:13;9.00;99.90
3756;DHT22;1893;52.526;13.360;2022-11-11T02:47:39;9.00;99.90
3756;DHT22;1893;52.526;13.360;2022-11-11T02:50:05;9.00;99.90
3756;DHT22;1893;52.526;13.360;2022-11-11T02:52:31;9.00;99.90
3756;DHT22;1893;52.526;13.360;2022-11-11T02:54:57;9.00;99.90
3756;DHT22;1893;52.526;13.360;2022-11-11T02:57:23;9.00;99.90
3756;DHT22;1893;52.526;13.360;2022-11-11T02:59:49;9.00;99.90
3756;DHT22;1893;52.526;13.360;2022-11-11T03:02:14;9.00;99.90
3756;DHT22;1893;52.526;13.360;2022-11-11T03:04:40;9.00;99.90
3756;DHT22;1893;52.526;13.360;2022-11-11T03:07:06;9.00;99.90
3756;DHT22;1893;52.526;13.360;2022-11-11T03:09:32;9.00;99.90
3756;DHT22;1893;52.526;13.360;2022-11-11T03:11:57;9.10;99.90
3756;DHT22;1893;52.526;13.360;2022-11-11T03:14:23;9.10;99.90
3756;DHT22;1893;52.526;13.360;2022-11-11T03:16:49;9.00;99.90
3756;DHT22;1893;52.526;13.360;2022-11-11T03:19:34;9.10;99.90
3756;DHT22;1893;52.526;13.360;2022-11-11T03:22:00;9.00;99.90
3756;DHT22;1893;52.526;13.360;2022-11-11T03:24:27;9.00;99.90
3756;DHT22;1893;52.526;13.360;2022-11-11T03:27:13;9.00;99.90
3756;DHT22;1893;52.526;13.360;2022-11-11T03:29:39;9.00;99.90
3756;DHT22;1893;52.526;13.360;2022-11-11T03:32:06;9.00;99.90
3756;DHT22;1893;52.526;13.360;2022-11-11T03:34:32;9.00;99.90
3756;DHT22;1893;52.526;13.360;2022-11-11T03:36:57;9.00;99.90
3756;DHT22;1893;52.526;13.360;2022-11-11T03:39:42;9.00;99.90
3756;DHT22;1893;52.526;13.360;2022-11-11T03:42:07;9.00;99.90
3756;DHT22;1893;52.526;13.360;2022-11-11T03:44:33;8.90;99.90
3756;DHT22;1893;52.526;13.360;2022-11-11T03:46:58;8.90;99.90
3756;DHT22;1893;52.526;13.360;2022-11-11T03:49:24;8.90;99.90
3756;DHT22;1893;52.526;13.360;2022-11-11T03:51:49;8.90;99.90
3756;DHT22;1893;52.526;13.360;2022-11-11T03:54:15;8.90;99.90
3756;DHT22;1893;52.526;13.360;2022-11-11T03:56:41;8.80;99.90
3756;DHT22;1893;52.526;13.360;2022-11-11T03:59:06;8.80;99.90
3756;DHT22;1893;52.526;13.360;2022-11-11T04:01:32;8.80;99.90
3756;DHT22;1893;52.526;13.360;2022-11-11T04:04:16;8.80;99.90
3756;DHT22;1893;52.526;13.360;2022-11-11T04:07:00;8.80;99.90
3756;DHT22;1893;52.526;13.360;2022-11-11T04:09:44;8.80;99.90
3756;DHT22;1893;52.526;13.360;2022-11-11T04:12:29;8.80;99.90
3756;DHT22;1893;52.526;13.360;2022-11-11T04:14:55;8.80;99.90
3756;DHT22;1893;52.526;13.360;2022-11-11T04:17:39;8.80;99.90
3756;DHT22;1893;52.526;13.360;2022-11-11T04:20:05;8.70;99.90
3756;DHT22;1893;52.526;13.360;2022-11-11T04:22:49;8.70;99.90
3756;DHT22;1893;52.526;13.360;2022-11-11T04:25:18;8.80;99.90
3756;DHT22;1893;52.526;13.360;2022-11-11T04:28:02;8.80;99.90
3756;DHT22;1893;52.526;13.360;2022-11-11T04:30:46;8.70;99.90
3756;DHT22;1893;52.526;13.360;2022-11-11T04:33:12;8.70;99.90
3756;DHT22;1893;52.526;13.360;2022-11-11T04:35:38;8.80;99.90
3756;DHT22;1893;52.526;13.360;2022-11-11T04:38:03;8.80;99.90
3756;DHT22;1893;52.526;13.360;2022-11-11T04:40:47;8.80;99.90
3756;DHT22;1893;52.526;13.360;2022-11-11T04:43:31;8.80;99.90
3756;DHT22;1893;52.526;13.360;2022-11-11T04:46:17;8.70;99.90
3756;DHT22;1893;52.526;13.360;2022-11-11T04:48:43;8.70;99.90
3756;DHT22;1893;52.526;13.360;2022-11-11T04:51:08;8.70;99.90
3756;DHT22;1893;52.526;13.360;2022-11-11T04:53:34;8.80;99.90
3756;DHT22;1893;52.526;13.360;2022-11-11T04:55:59;8.70;99.90
3756;DHT22;1893;52.526;13.360;2022-11-11T04:58:43;8.70;99.90
3756;DHT22;1893;52.526;13.360;2022-11-11T05:01:11;8.70;99.90
3756;DHT22;1893;52.526;13.360;2022-11-11T05:03:56;8.80;99.90
3756;DHT22;1893;52.526;13.360;2022-11-11T05:06:22;8.80;99.90
3756;DHT22;1893;52.526;13.360;2022-11-11T05:09:06;8.80;99.90
3756;DHT22;1893;52.526;13.360;2022-11-11T05:11:33;8.80;99.90
3756;DHT22;1893;52.526;13.360;2022-11-11T05:14:04;8.80;99.90
3756;DHT22;1893;52.526;13.360;2022-11-11T05:16:51;8.80;99.90
3756;DHT22;1893;52.526;13.360;2022-11-11T05:19:35;8.80;99.90
3756;DHT22;1893;52.526;13.360;2022-11-11T05:24:51;8.70;99.90
3756;DHT22;1893;52.526;13.360;2022-11-11T05:27:35;8.80;99.90
3756;DHT22;1893;52.526;13.360;2022-11-11T05:30:02;8.80;99.90
3756;DHT22;1893;52.526;13.360;2022-11-11T05:32:28;8.80;99.90
3756;DHT22;1893;52.526;13.360;2022-11-11T05:34:54;8.80;99.90
3756;DHT22;1893;52.526;13.360;2022-11-11T05:37:20;8.90;99.90
3756;DHT22;1893;52.526;13.360;2022-11-11T05:39:45;8.80;99.90
3756;DHT22;1893;52.526;13.360;2022-11-11T05:42:11;8.80;99.90
3756;DHT22;1893;52.526;13.360;2022-11-11T05:44:37;8.80;99.90
3756;DHT22;1893;52.526;13.360;2022-11-11T05:47:21;8.80;99.90
3756;DHT22;1893;52.526;13.360;2022-11-11T05:49:47;8.80;99.90
3756;DHT22;1893;52.526;13.360;2022-11-11T05:52:14;8.80;99.90
3756;DHT22;1893;52.526;13.360;2022-11-11T05:54:40;8.80;99.90
3756;DHT22;1893;52.526;13.360;2022-11-11T05:57:07;8.80;99.90
3756;DHT22;1893;52.526;13.360;2022-11-11T05:59:33;8.90;99.90
3756;DHT22;1893;52.526;13.360;2022-11-11T06:01:59;8.90;99.90
3756;DHT22;1893;52.526;13.360;2022-11-11T06:04:24;8.90;99.90
3756;DHT22;1893;52.526;13.360;2022-11-11T06:06:50;9.00;99.90
3756;DHT22;1893;52.526;13.360;2022-11-11T06:09:16;8.90;99.90
3756;DHT22;1893;52.526;13.360;2022-11-11T06:11:42;8.90;99.90
3756;DHT22;1893;52.526;13.360;2022-11-11T06:14:08;8.90;99.90
3756;DHT22;1893;52.526;13.360;2022-11-11T06:16:33;8.90;99.90
3756;DHT22;1893;52.526;13.360;2022-11-11T06:18:59;8.90;99.90
3756;DHT22;1893;52.526;13.360;2022-11-11T06:21:25;8.90;99.90
3756;DHT22;1893;52.526;13.360;2022-11-11T06:23:51;8.90;99.90
3756;DHT22;1893;52.526;13.360;2022-11-11T06:26:17;8.90;99.90
3756;DHT22;1893;52.526;13.360;2022-11-11T06:28:48;9.00;99.90
3756;DHT22;1893;52.526;13.360;2022-11-11T06:31:25;9.00;99.90
3756;DHT22;1893;52.526;13.360;2022-11-11T06:33:52;9.00;99.90
3756;DHT22;1893;52.526;13.360;2022-11-11T06:36:19;9.00;99.90
3756;DHT22;1893;52.526;13.360;2022-11-11T06:38:45;9.00;99.90
3756;DHT22;1893;52.526;13.360;2022-11-11T06:41:12;9.00;99.90
3756;DHT22;1893;52.526;13.360;2022-11-11T06:43:44;9.00;99.90
3756;DHT22;1893;52.526;13.360;2022-11-11T06:46:16;9.00;99.90
3756;DHT22;1893;52.526;13.360;2022-11-11T06:48:45;9.00;99.90
3756;DHT22;1893;52.526;13.360;2022-11-11T06:51:11;9.00;99.90
3756;DHT22;1893;52.526;13.360;2022-11-11T06:53:38;9.10;99.90
3756;DHT22;1893;52.526;13.360;2022-11-11T06:56:04;9.10;99.90
3756;DHT22;1893;52.526;13.360;2022-11-11T06:58:31;9.10;99.90
3756;DHT22;1893;52.526;13.360;2022-11-11T07:00:57;9.20;99.90
3756;DHT22;1893;52.526;13.360;2022-11-11T07:03:22;9.10;99.90
3756;DHT22;1893;52.526;13.360;2022-11-11T07:05:48;9.10;99.90
3756;DHT22;1893;52.526;13.360;2022-11-11T07:08:16;9.20;87.50
3756;DHT22;1893;52.526;13.360;2022-11-11T07:10:46;9.20;73.20
3756;DHT22;1893;52.526;13.360;2022-11-11T07:13:13;9.20;26.80
3756;DHT22;1893;52.526;13.360;2022-11-11T07:15:40;9.40;15.40
3756;DHT22;1893;52.526;13.360;2022-11-11T07:18:06;9.20;14.10
3756;DHT22;1893;52.526;13.360;2022-11-11T07:20:31;9.30;1.00
3756;DHT22;1893;52.526;13.360;2022-11-11T07:22:57;9.30;1.00
3756;DHT22;1893;52.526;13.360;2022-11-11T07:25:23;9.40;1.00
3756;DHT22;1893;52.526;13.360;2022-11-11T07:27:49;9.40;1.00
3756;DHT22;1893;52.526;13.360;2022-11-11T07:30:14;9.40;1.00
3756;DHT22;1893;52.526;13.360;2022-11-11T07:32:44;9.30;1.00
3756;DHT22;1893;52.526;13.360;2022-11-11T07:35:11;9.30;1.00
3756;DHT22;1893;52.526;13.360;2022-11-11T07:37:38;9.40;1.00
3756;DHT22;1893;52.526;13.360;2022-11-11T07:40:04;9.40;1.00
3756;DHT22;1893;52.526;13.360;2022-11-11T07:42:30;9.40;1.00
3756;DHT22;1893;52.526;13.360;2022-11-11T07:44:56;9.40;1.00
3756;DHT22;1893;52.526;13.360;2022-11-11T07:47:21;9.40;1.00
3756;DHT22;1893;52.526;13.360;2022-11-11T07:49:47;9.40;1.00
3756;DHT22;1893;52.526;13.360;2022-11-11T07:52:12;9.50;1.00
3756;DHT22;1893;52.526;13.360;2022-11-11T07:54:39;9.50;1.00
3756;DHT22;1893;52.526;13.360;2022-11-11T07:57:05;9.50;1.00
3756;DHT22;1893;52.526;13.360;2022-11-11T07:59:30;9.50;1.00
3756;DHT22;1893;52.526;13.360;2022-11-11T08:01:56;9.60;1.00
3756;DHT22;1893;52.526;13.360;2022-11-11T08:04:21;9.60;1.00
3756;DHT22;1893;52.526;13.360;2022-11-11T08:06:47;9.60;1.00
3756;DHT22;1893;52.526;13.360;2022-11-11T08:09:12;9.60;1.00
3756;DHT22;1893;52.526;13.360;2022-11-11T08:11:38;9.70;1.00
3756;DHT22;1893;52.526;13.360;2022-11-11T08:14:22;9.70;1.00
3756;DHT22;1893;52.526;13.360;2022-11-11T08:16:48;9.90;1.00
3756;DHT22;1893;52.526;13.360;2022-11-11T08:19:13;9.80;1.00
3756;DHT22;1893;52.526;13.360;2022-11-11T08:21:39;9.90;1.00
3756;DHT22;1893;52.526;13.360;2022-11-11T08:24:05;10.00;1.00
3756;DHT22;1893;52.526;13.360;2022-11-11T08:26:30;10.00;1.00
3756;DHT22;1893;52.526;13.360;2022-11-11T08:28:56;10.00;1.00
3756;DHT22;1893;52.526;13.360;2022-11-11T08:31:22;10.10;1.00
3756;DHT22;1893;52.526;13.360;2022-11-11T08:33:48;10.10;1.00
3756;DHT22;1893;52.526;13.360;2022-11-11T08:36:13;10.30;1.00
3756;DHT22;1893;52.526;13.360;2022-11-11T08:38:39;10.40;1.00
3756;DHT22;1893;52.526;13.360;2022-11-11T08:41:06;10.40;99.90
3756;DHT22;1893;52.526;13.360;2022-11-11T08:43:32;10.40;99.90
3756;DHT22;1893;52.526;13.360;2022-11-11T08:45:59;10.50;99.90
3756;DHT22;1893;52.526;13.360;2022-11-11T08:48:25;10.80;99.90
3756;DHT22;1893;52.526;13.360;2022-11-11T08:50:51;11.10;1.00
3756;DHT22;1893;52.526;13.360;2022-11-11T08:53:17;11.50;99.90
3756;DHT22;1893;52.526;13.360;2022-11-11T08:55:43;11.90;70.80
3756;DHT22;1893;52.526;13.360;2022-11-11T08:58:09;11.70;1.00
3756;DHT22;1893;52.526;13.360;2022-11-11T09:00:35;11.90;99.90
3756;DHT22;1893;52.526;13.360;2022-11-11T09:03:06;11.80;99.90
3756;DHT22;1893;52.526;13.360;2022-11-11T09:05:33;11.50;99.90
3756;DHT22;1893;52.526;13.360;2022-11-11T09:08:03;11.70;1.00
3756;DHT22;1893;52.526;13.360;2022-11-11T09:10:32;11.70;1.90
3756;DHT22;1893;52.526;13.360;2022-11-11T09:12:58;11.90;1.00
3756;DHT22;1893;52.526;13.360;2022-11-11T09:15:24;11.80;99.90
3756;DHT22;1893;52.526;13.360;2022-11-11T09:17:51;12.00;1.00
3756;DHT22;1893;52.526;13.360;2022-11-11T09:20:17;12.30;99.90
3756;DHT22;1893;52.526;13.360;2022-11-11T09:22:44;12.50;1.00
3756;DHT22;1893;52.526;13.360;2022-11-11T09:25:10;12.40;99.90
3756;DHT22;1893;52.526;13.360;2022-11-11T09:27:35;12.30;99.90
3756;DHT22;1893;52.526;13.360;2022-11-11T09:30:01;12.10;1.00
3756;DHT22;1893;52.526;13.360;2022-11-11T09:32:26;12.10;1.00
3756;DHT22;1893;52.526;13.360;2022-11-11T09:34:52;12.00;1.00
3756;DHT22;1893;52.526;13.360;2022-11-11T09:37:20;11.80;19.20
3756;DHT22;1893;52.526;13.360;2022-11-11T09:39:45;11.90;99.90
3756;DHT22;1893;52.526;13.360;2022-11-11T09:42:37;11.70;1.00
3756;DHT22;1893;52.526;13.360;2022-11-11T09:45:20;11.60;1.00
3756;DHT22;1893;52.526;13.360;2022-11-11T09:50:47;11.70;1.00
3756;DHT22;1893;52.526;13.360;2022-11-11T09:53:26;11.90;99.90
3756;DHT22;1893;52.526;13.360;2022-11-11T09:56:00;12.10;81.30
3756;DHT22;1893;52.526;13.360;2022-11-11T09:58:37;12.10;1.00
3756;DHT22;1893;52.526;13.360;2022-11-11T10:01:23;12.00;1.00
3756;DHT22;1893;52.526;13.360;2022-11-11T10:04:21;12.00;1.00
3756;DHT22;1893;52.526;13.360;2022-11-11T10:06:49;12.10;1.00
3756;DHT22;1893;52.526;13.360;2022-11-11T10:09:30;12.20;99.90
3756;DHT22;1893;52.526;13.360;2022-11-11T10:14:36;12.10;99.90
3756;DHT22;1893;52.526;13.360;2022-11-11T10:20:22;12.40;1.00
3756;DHT22;1893;52.526;13.360;2022-11-11T10:22:57;12.40;1.00
3756;DHT22;1893;52.526;13.360;2022-11-11T10:25:26;12.60;1.00
3756;DHT22;1893;52.526;13.360;2022-11-11T10:27:54;12.60;1.00
3756;DHT22;1893;52.526;13.360;2022-11-11T10:30:26;12.60;1.00
3756;DHT22;1893;52.526;13.360;2022-11-11T10:33:01;12.70;1.00
3756;DHT22;1893;52.526;13.360;2022-11-11T10:35:30;12.70;99.90
3756;DHT22;1893;52.526;13.360;2022-11-11T10:40:53;12.90;99.90
3756;DHT22;1893;52.526;13.360;2022-11-11T10:43:25;13.00;99.90
3756;DHT22;1893;52.526;13.360;2022-11-11T10:46:02;13.20;9.50
3756;DHT22;1893;52.526;13.360;2022-11-11T10:48:40;13.60;1.00
3756;DHT22;1893;52.526;13.360;2022-11-11T10:51:07;13.50;1.00
3756;DHT22;1893;52.526;13.360;2022-11-11T10:54:07;13.40;1.00
3756;DHT22;1893;52.526;13.360;2022-11-11T10:57:11;13.60;1.00
3756;DHT22;1893;52.526;13.360;2022-11-11T10:59:46;13.70;1.00
3756;DHT22;1893;52.526;13.360;2022-11-11T11:02:20;13.90;99.90
3756;DHT22;1893;52.526;13.360;2022-11-11T11:05:12;14.10;99.90
3756;DHT22;1893;52.526;13.360;2022-11-11T11:07:42;14.30;99.90
3756;DHT22;1893;52.526;13.360;2022-11-11T11:10:23;14.10;99.90
3756;DHT22;1893;52.526;13.360;2022-11-11T11:16:06;13.30;99.90
3756;DHT22;1893;52.526;13.360;2022-11-11T11:18:33;13.40;99.90
3756;DHT22;1893;52.526;13.360;2022-11-11T11:21:01;13.30;99.90
3756;DHT22;1893;52.526;13.360;2022-11-11T11:23:44;13.50;99.90
3756;DHT22;1893;52.526;13.360;2022-11-11T11:26:12;13.70;99.90
3756;DHT22;1893;52.526;13.360;2022-11-11T11:28:57;13.60;99.90
3756;DHT22;1893;52.526;13.360;2022-11-11T11:31:40;13.50;99.90
3756;DHT22;1893;52.526;13.360;2022-11-11T11:34:07;13.30;99.90
3756;DHT22;1893;52.526;13.360;2022-11-11T11:36:33;13.30;99.90
3756;DHT22;1893;52.526;13.360;2022-11-11T11:38:59;13.40;99.90
3756;DHT22;1893;52.526;13.360;2022-11-11T11:44:27;13.40;99.90
3756;DHT22;1893;52.526;13.360;2022-11-11T11:50:04;13.90;99.90
3756;DHT22;1893;52.526;13.360;2022-11-11T11:55:29;13.90;99.90
3756;DHT22;1893;52.526;13.360;2022-11-11T11:58:26;13.90;99.90
3756;DHT22;1893;52.526;13.360;2022-11-11T12:01:10;13.90;99.90
3756;DHT22;1893;52.526;13.360;2022-11-11T12:04:14;14.20;99.90
3756;DHT22;1893;52.526;13.360;2022-11-11T12:10:43;14.20;75.10
3756;DHT22;1893;52.526;13.360;2022-11-11T12:15:36;14.20;51.00
3756;DHT22;1893;52.526;13.360;2022-11-11T12:18:30;14.00;23.30
3756;DHT22;1893;52.526;13.360;2022-11-11T12:21:15;13.80;78.10
3756;DHT22;1893;52.526;13.360;2022-11-11T12:31:32;13.90;20.50
3756;DHT22;1893;52.526;13.360;2022-11-11T12:45:19;14.30;1.00
3756;DHT22;1893;52.526;13.360;2022-11-11T12:48:07;14.40;1.00
3756;DHT22;1893;52.526;13.360;2022-11-11T12:50:51;14.30;1.00
3756;DHT22;1893;52.526;13.360;2022-11-11T13:01:33;14.40;1.00
3756;DHT22;1893;52.526;13.360;2022-11-11T13:10:07;14.50;1.00
3756;DHT22;1893;52.526;13.360;2022-11-11T13:15:22;14.80;1.00
3756;DHT22;1893;52.526;13.360;2022-11-11T13:17:48;14.60;1.00
3756;DHT22;1893;52.526;13.360;2022-11-11T13:23:01;14.10;1.00
3756;DHT22;1893;52.526;13.360;2022-11-11T13:25:29;14.00;1.00
3756;DHT22;1893;52.526;13.360;2022-11-11T13:28:04;13.90;1.00
3756;DHT22;1893;52.526;13.360;2022-11-11T13:33:20;13.70;1.00
3756;DHT22;1893;52.526;13.360;2022-11-11T13:36:09;13.80;1.00
3756;DHT22;1893;52.526;13.360;2022-11-11T13:41:10;13.80;1.00
3756;DHT22;1893;52.526;13.360;2022-11-11T13:43:42;13.70;1.00
3756;DHT22;1893;52.526;13.360;2022-11-11T13:46:40;13.60;1.00
3756;DHT22;1893;52.526;13.360;2022-11-11T13:49:33;13.60;1.00
3756;DHT22;1893;52.526;13.360;2022-11-11T13:52:05;13.50;1.00
3756;DHT22;1893;52.526;13.360;2022-11-11T13:54:48;13.50;1.00
3756;DHT22;1893;52.526;13.360;2022-11-11T13:57:21;13.40;1.00
3756;DHT22;1893;52.526;13.360;2022-11-11T14:02:43;13.40;1.00
3756;DHT22;1893;52.526;13.360;2022-11-11T14:17:56;13.30;70.50
3756;DHT22;1893;52.526;13.360;2022-11-11T14:20:38;13.20;69.40
3756;DHT22;1893;52.526;13.360;2022-11-11T14:26:14;13.20;99.90
3756;DHT22;1893;52.526;13.360;2022-11-11T14:33:54;13.20;99.90
3756;DHT22;1893;52.526;13.360;2022-11-11T14:36:43;13.10;99.90
3756;DHT22;1893;52.526;13.360;2022-11-11T14:41:47;13.00;99.90
3756;DHT22;1893;52.526;13.360;2022-11-11T14:49:47;12.90;1.00
3756;DHT22;1893;52.526;13.360;2022-11-11T14:55:09;12.80;1.00
3756;DHT22;1893;52.526;13.360;2022-11-11T14:57:49;12.80;1.00
3756;DHT22;1893;52.526;13.360;2022-11-11T15:00:19;12.80;1.00
3756;DHT22;1893;52.526;13.360;2022-11-11T15:16:50;12.40;99.90
3756;DHT22;1893;52.526;13.360;2022-11-11T15:22:11;12.30;1.00
3756;DHT22;1893;52.526;13.360;2022-11-11T15:25:10;12.30;1.00
3756;DHT22;1893;52.526;13.360;2022-11-11T15:27:47;12.20;1.00
3756;DHT22;1893;52.526;13.360;2022-11-11T15:30:20;12.20;38.20
3756;DHT22;1893;52.526;13.360;2022-11-11T15:37:58;12.10;1.00
3756;DHT22;1893;52.526;13.360;2022-11-11T15:40:47;12.00;1.00
3756;DHT22;1893;52.526;13.360;2022-11-11T15:43:21;12.00;1.00
3756;DHT22;1893;52.526;13.360;2022-11-11T15:45:53;11.90;43.20
3756;DHT22;1893;52.526;13.360;2022-11-11T15:48:33;11.90;99.90
3756;DHT22;1893;52.526;13.360;2022-11-11T15:53:46;11.80;1.00
3756;DHT22;1893;52.526;13.360;2022-11-11T15:56:30;11.70;99.90
3756;DHT22;1893;52.526;13.360;2022-11-11T15:58:56;11.70;99.90
3756;DHT22;1893;52.526;13.360;2022-11-11T16:01:27;11.60;1.00
3756;DHT22;1893;52.526;13.360;2022-11-11T16:03:53;11.50;99.90
3756;DHT22;1893;52.526;13.360;2022-11-11T16:06:20;11.50;1.00
3756;DHT22;1893;52.526;13.360;2022-11-11T16:08:51;11.50;1.00
3756;DHT22;1893;52.526;13.360;2022-11-11T16:11:18;11.40;1.00
3756;DHT22;1893;52.526;13.360;2022-11-11T16:14:00;11.50;1.00
3756;DHT22;1893;52.526;13.360;2022-11-11T16:16:30;11.60;1.00
3756;DHT22;1893;52.526;13.360;2022-11-11T16:19:04;11.40;88.90
3756;DHT22;1893;52.526;13.360;2022-11-11T16:24:01;11.30;99.90
3756;DHT22;1893;52.526;13.360;2022-11-11T16:26:27;11.40;99.90
3756;DHT22;1893;52.526;13.360;2022-11-11T16:28:57;11.30;99.90
3756;DHT22;1893;52.526;13.360;2022-11-11T16:33:54;11.30;99.90
3756;DHT22;1893;52.526;13.360;2022-11-11T16:36:19;11.40;99.90
3756;DHT22;1893;52.526;13.360;2022-11-11T16:38:45;11.30;99.90
3756;DHT22;1893;52.526;13.360;2022-11-11T16:41:29;11.30;1.00
3756;DHT22;1893;52.526;13.360;2022-11-11T16:43:56;11.30;1.00
3756;DHT22;1893;52.526;13.360;2022-11-11T16:49:13;11.30;1.00
3756;DHT22;1893;52.526;13.360;2022-11-11T16:51:44;11.20;1.00
3756;DHT22;1893;52.526;13.360;2022-11-11T16:54:14;11.20;1.00
3756;DHT22;1893;52.526;13.360;2022-11-11T16:56:44;11.20;1.00
3756;DHT22;1893;52.526;13.360;2022-11-11T16:59:17;11.10;1.00
3756;DHT22;1893;52.526;13.360;2022-11-11T17:01:45;11.00;99.90
3756;DHT22;1893;52.526;13.360;2022-11-11T17:04:11;11.00;99.90
3756;DHT22;1893;52.526;13.360;2022-11-11T17:06:49;11.00;99.90
3756;DHT22;1893;52.526;13.360;2022-11-11T17:11:55;10.90;99.90
3756;DHT22;1893;52.526;13.360;2022-11-11T17:14:21;10.90;99.90
3756;DHT22;1893;52.526;13.360;2022-11-11T17:16:47;10.90;99.90
3756;DHT22;1893;52.526;13.360;2022-11-11T17:19:12;10.90;99.90
3756;DHT22;1893;52.526;13.360;2022-11-11T17:21:38;10.80;99.90
3756;DHT22;1893;52.526;13.360;2022-11-11T17:24:03;10.80;99.90
3756;DHT22;1893;52.526;13.360;2022-11-11T17:26:29;10.80;99.90
3756;DHT22;1893;52.526;13.360;2022-11-11T17:28:56;10.80;99.90
3756;DHT22;1893;52.526;13.360;2022-11-11T17:31:22;10.70;99.90
3756;DHT22;1893;52.526;13.360;2022-11-11T17:33:51;10.70;99.90
3756;DHT22;1893;52.526;13.360;2022-11-11T17:36:16;10.60;1.00
3756;DHT22;1893;52.526;13.360;2022-11-11T17:38:42;10.50;1.00
3756;DHT22;1893;52.526;13.360;2022-11-11T17:41:12;10.50;1.00
3756;DHT22;1893;52.526;13.360;2022-11-11T17:43:38;10.40;1.00
3756;DHT22;1893;52.526;13.360;2022-11-11T17:46:04;10.30;1.00
3756;DHT22;1893;52.526;13.360;2022-11-11T17:48:29;10.20;1.00
3756;DHT22;1893;52.526;13.360;2022-11-11T17:50:55;10.20;1.00
3756;DHT22;1893;52.526;13.360;2022-11-11T17:53:21;10.10;1.00
3756;DHT22;1893;52.526;13.360;2022-11-11T17:55:46;10.10;1.00
3756;DHT22;1893;52.526;13.360;2022-11-11T17:58:12;10.00;1.00
3756;DHT22;1893;52.526;13.360;2022-11-11T18:00:38;10.10;1.00
3756;DHT22;1893;52.526;13.360;2022-11-11T18:03:05;10.00;1.00
3756;DHT22;1893;52.526;13.360;2022-11-11T18:05:34;10.00;1.00
3756;DHT22;1893;52.526;13.360;2022-11-11T18:08:00;9.90;1.00
3756;DHT22;1893;52.526;13.360;2022-11-11T18:10:26;9.90;1.00
3756;DHT22;1893;52.526;13.360;2022-11-11T18:12:52;9.80;1.00
3756;DHT22;1893;52.526;13.360;2022-11-11T18:15:17;9.70;1.00
3756;DHT22;1893;52.526;13.360;2022-11-11T18:17:44;9.60;1.00
3756;DHT22;1893;52.526;13.360;2022-11-11T18:20:11;9.50;4.70
3756;DHT22;1893;52.526;13.360;2022-11-11T18:22:37;9.50;39.20
3756;DHT22;1893;52.526;13.360;2022-11-11T18:25:02;9.40;97.00
3756;DHT22;1893;52.526;13.360;2022-11-11T18:27:28;9.40;99.90
3756;DHT22;1893;52.526;13.360;2022-11-11T18:29:54;9.40;99.90
3756;DHT22;1893;52.526;13.360;2022-11-11T18:32:19;9.40;99.90
3756;DHT22;1893;52.526;13.360;2022-11-11T18:34:45;9.40;99.90
3756;DHT22;1893;52.526;13.360;2022-11-11T18:37:10;9.40;99.90
3756;DHT22;1893;52.526;13.360;2022-11-11T18:39:36;9.40;99.90
3756;DHT22;1893;52.526;13.360;2022-11-11T18:42:01;9.50;99.90
3756;DHT22;1893;52.526;13.360;2022-11-11T18:44:27;9.60;99.90
3756;DHT22;1893;52.526;13.360;2022-11-11T18:46:53;9.70;98.20
3756;DHT22;1893;52.526;13.360;2022-11-11T18:49:19;9.60;64.00
3756;DHT22;1893;52.526;13.360;2022-11-11T18:51:45;9.70;49.20